KAKO/AKO METAR and TAF weather

Enter ICAO airport designator
Station Type Date Time Source
KAKO METAR 2020/04/06 13:53 UTC NOAA

KAKO 061353Z AUTO 24008KT 10SM CLR 09/02 A2983 RMK AO2 SLP076 T00940022


Station Type Date Time Source
KAKO Decoded METAR 2020/04/06 13:53 UTC NOAA

COLORADO PLAINS REGIONAL, CO, United States (KAKO) 40-10N 103-13W 1421M
Apr 06, 2020 - 09:53 AM EDT / 2020.04.06 1353 UTC
Wind: from the WSW (240 degrees) at 9 MPH (8 KT):0
Visibility: 10 mile(s):0
Sky conditions: clear
Temperature: 48.9 F (9.4 C)
Dew Point: 36.0 F (2.2 C)
Relative Humidity: 60%
Pressure (altimeter): 29.83 in. Hg (1010 hPa)
ob: KAKO 061353Z AUTO 24008KT 10SM CLR 09/02 A2983 RMK AO2 SLP076 T00940022
cycle: 14

Station Type Date Time Source
KAKO TAF UTC NOAA

Error!

Example: see airport list